createdAt,value
2023-02-13T00:00:41.559Z,1035.28
2023-02-13T00:01:42.447Z,1035.25
2023-02-13T00:02:43.408Z,1035.25
2023-02-13T00:03:44.333Z,1035.26
2023-02-13T00:04:45.217Z,1035.24
2023-02-13T00:05:46.123Z,1035.24
2023-02-13T00:06:47.008Z,1035.28
2023-02-13T00:07:47.891Z,1035.29
2023-02-13T00:08:48.776Z,1035.29
2023-02-13T00:09:49.674Z,1035.27
2023-02-13T00:10:50.581Z,1035.31
2023-02-13T00:11:51.480Z,1035.30
2023-02-13T00:12:52.354Z,1035.25
2023-02-13T00:13:53.231Z,1035.27
2023-02-13T00:14:54.118Z,1035.30
2023-02-13T00:15:55.073Z,1035.28
2023-02-13T00:16:55.927Z,1035.25
2023-02-13T00:17:56.808Z,1035.29
2023-02-13T00:18:57.689Z,1035.26
2023-02-13T00:19:58.592Z,1035.28
2023-02-13T00:20:59.457Z,1035.29
2023-02-13T00:22:00.330Z,1035.26
2023-02-13T00:23:01.205Z,1035.25
2023-02-13T00:24:02.091Z,1035.22
2023-02-13T00:25:02.960Z,1035.18
2023-02-13T00:26:03.850Z,1035.20
2023-02-13T00:27:04.738Z,1035.20
2023-02-13T00:28:05.635Z,1035.17
2023-02-13T00:29:06.533Z,1035.16
2023-02-13T00:30:07.371Z,1035.17
2023-02-13T00:31:08.362Z,1035.19
2023-02-13T00:32:09.465Z,1035.17
2023-02-13T00:33:09.913Z,1035.14
2023-02-13T00:34:10.790Z,1035.16
2023-02-13T00:35:11.685Z,1035.19
2023-02-13T00:36:12.576Z,1035.16
2023-02-13T00:37:13.444Z,1035.13
2023-02-13T00:38:14.327Z,1035.14
2023-02-13T00:39:15.211Z,1035.12
2023-02-13T00:40:16.107Z,1035.10
2023-02-13T00:41:17.012Z,1035.14
2023-02-13T00:42:17.894Z,1035.11
2023-02-13T00:43:20.336Z,1035.11
2023-02-13T00:44:19.745Z,1035.13
2023-02-13T00:45:20.627Z,1035.10
2023-02-13T00:46:21.584Z,1035.09
2023-02-13T00:47:22.426Z,1035.11
2023-02-13T00:48:23.304Z,1035.11
2023-02-13T00:49:24.197Z,1035.09
2023-02-13T00:50:25.129Z,1035.07
2023-02-13T00:51:26.005Z,1035.11
2023-02-13T00:52:26.906Z,1035.12
2023-02-13T00:53:27.800Z,1035.10
2023-02-13T00:54:28.685Z,1035.11
2023-02-13T00:55:29.594Z,1035.13
2023-02-13T00:56:30.490Z,1035.10
2023-02-13T00:57:31.365Z,1035.09
2023-02-13T00:58:32.325Z,1035.11
2023-02-13T00:59:33.159Z,1035.10
2023-02-13T01:00:34.043Z,1035.09
2023-02-13T01:01:35.031Z,1035.09
2023-02-13T01:02:35.880Z,1035.10
2023-02-13T01:03:36.853Z,1035.09
2023-02-13T01:04:37.698Z,1035.05
2023-02-13T01:05:38.609Z,1035.05
2023-02-13T01:06:39.476Z,1035.10
2023-02-13T01:07:40.364Z,1035.05
2023-02-13T01:08:41.241Z,1035.05
2023-02-13T01:09:42.129Z,1035.07
2023-02-13T01:10:42.999Z,1035.09
2023-02-13T01:11:43.892Z,1035.10
2023-02-13T01:12:44.772Z,1035.10
2023-02-13T01:13:45.659Z,1035.07
2023-02-13T01:14:46.537Z,1035.07
2023-02-13T01:15:47.431Z,1035.10
2023-02-13T01:16:48.307Z,1035.08
2023-02-13T01:17:49.194Z,1035.03
2023-02-13T01:18:50.073Z,1035.07
2023-02-13T01:19:50.957Z,1035.08
2023-02-13T01:20:51.863Z,1035.06
2023-02-13T01:21:52.735Z,1035.06
2023-02-13T01:22:53.618Z,1035.07
2023-02-13T01:23:54.499Z,1035.03
2023-02-13T01:24:55.384Z,1035.04
2023-02-13T01:25:56.267Z,1035.06
2023-02-13T01:26:57.150Z,1035.04
2023-02-13T01:27:58.035Z,1035.08
2023-02-13T01:28:58.909Z,1035.02
2023-02-13T01:29:59.790Z,1035.02
2023-02-13T01:31:01.229Z,1035.03
2023-02-13T01:32:01.357Z,1035.00
2023-02-13T01:33:02.210Z,1035.01
2023-02-13T01:34:03.074Z,1034.98
2023-02-13T01:35:03.968Z,1034.99
2023-02-13T01:36:04.864Z,1034.98
2023-02-13T01:37:05.732Z,1034.98
2023-02-13T01:38:06.611Z,1034.98
2023-02-13T01:39:07.492Z,1034.96
2023-02-13T01:40:08.376Z,1034.96
2023-02-13T01:41:09.248Z,1034.92
2023-02-13T01:42:10.146Z,1034.91
2023-02-13T01:43:11.023Z,1034.90
2023-02-13T01:44:11.903Z,1034.87
2023-02-13T01:45:12.786Z,1034.86
2023-02-13T01:46:13.681Z,1034.90
2023-02-13T01:47:14.561Z,1034.89
2023-02-13T01:48:15.447Z,1034.86
2023-02-13T01:49:16.329Z,1034.83
2023-02-13T01:50:17.208Z,1034.83
2023-02-13T01:51:18.106Z,1034.81
2023-02-13T01:52:18.990Z,1034.80
2023-02-13T01:53:19.874Z,1034.78
2023-02-13T01:54:20.769Z,1034.78
2023-02-13T01:55:21.640Z,1034.78
2023-02-13T01:56:22.526Z,1034.77
2023-02-13T01:57:23.422Z,1034.77
2023-02-13T01:58:24.289Z,1034.77
2023-02-13T01:59:25.170Z,1034.78
2023-02-13T02:00:26.045Z,1034.78
2023-02-13T02:01:27.073Z,1034.77
2023-02-13T02:02:27.462Z,1034.79
2023-02-13T02:03:28.314Z,1034.78
2023-02-13T02:04:29.196Z,1034.79
2023-02-13T02:05:30.085Z,1034.78
2023-02-13T02:06:30.996Z,1034.83
2023-02-13T02:07:31.881Z,1034.83
2023-02-13T02:08:32.736Z,1034.84
2023-02-13T02:09:33.627Z,1034.83
2023-02-13T02:10:34.502Z,1034.86
2023-02-13T02:11:35.390Z,1034.86
2023-02-13T02:12:36.297Z,1034.87
2023-02-13T02:13:37.181Z,1034.85
2023-02-13T02:14:38.054Z,1034.81
2023-02-13T02:15:39.083Z,1034.84
2023-02-13T02:16:39.493Z,1034.85
2023-02-13T02:17:40.383Z,1034.86
2023-02-13T02:18:41.271Z,1034.84
2023-02-13T02:19:42.144Z,1034.84
2023-02-13T02:20:43.039Z,1034.83
2023-02-13T02:21:43.939Z,1034.83
2023-02-13T02:22:44.805Z,1034.83
2023-02-13T02:23:45.693Z,1034.82
2023-02-13T02:24:46.572Z,1034.84
2023-02-13T02:25:47.457Z,1034.81
2023-02-13T02:26:48.338Z,1034.81
2023-02-13T02:27:49.234Z,1034.78
2023-02-13T02:28:50.115Z,1034.78
2023-02-13T02:29:50.999Z,1034.77
2023-02-13T02:30:52.006Z,1034.79
2023-02-13T02:31:52.532Z,1034.80
2023-02-13T02:32:53.374Z,1034.85
2023-02-13T02:33:54.246Z,1034.85
2023-02-13T02:34:55.128Z,1034.87
2023-02-13T02:35:56.012Z,1034.82
2023-02-13T02:36:56.919Z,1034.86
2023-02-13T02:37:57.781Z,1034.87
2023-02-13T02:38:58.661Z,1034.89
2023-02-13T02:39:59.552Z,1034.88
2023-02-13T02:41:00.536Z,1034.84
2023-02-13T02:42:00.927Z,1034.89
2023-02-13T02:43:01.813Z,1034.89
2023-02-13T02:44:02.700Z,1034.91
2023-02-13T02:45:03.589Z,1034.93
2023-02-13T02:46:04.467Z,1034.94
2023-02-13T02:47:05.372Z,1034.95
2023-02-13T02:48:06.278Z,1034.96
2023-02-13T02:49:07.168Z,1034.96
2023-02-13T02:50:08.069Z,1034.95
2023-02-13T02:51:08.960Z,1034.95
2023-02-13T02:52:09.871Z,1034.96
2023-02-13T02:53:10.754Z,1034.93
2023-02-13T02:54:11.639Z,1034.96
2023-02-13T02:55:12.530Z,1034.95
2023-02-13T02:56:13.415Z,1034.97
2023-02-13T02:57:14.297Z,1034.93
2023-02-13T02:58:15.215Z,1034.94
2023-02-13T02:59:16.090Z,1034.90
2023-02-13T03:00:16.970Z,1034.93
2023-02-13T03:01:17.908Z,1034.95
2023-02-13T03:02:18.769Z,1034.97
2023-02-13T03:03:19.654Z,1034.99
2023-02-13T03:04:20.588Z,1034.99
2023-02-13T03:05:21.421Z,1035.01
2023-02-13T03:06:22.306Z,1035.04
2023-02-13T03:07:23.213Z,1035.03
2023-02-13T03:08:24.085Z,1035.02
2023-02-13T03:09:24.966Z,1035.04
2023-02-13T03:10:25.851Z,1035.03
2023-02-13T03:11:26.740Z,1035.01
2023-02-13T03:12:27.634Z,1035.00
2023-02-13T03:13:28.527Z,1035.01
2023-02-13T03:14:29.406Z,1035.02
2023-02-13T03:15:30.290Z,1035.03
2023-02-13T03:16:31.247Z,1035.01
2023-02-13T03:17:32.074Z,1034.99
2023-02-13T03:18:32.965Z,1034.97
2023-02-13T03:19:33.848Z,1034.95
2023-02-13T03:20:34.739Z,1034.96
2023-02-13T03:21:35.625Z,1034.98
2023-02-13T03:22:36.511Z,1034.96
2023-02-13T03:23:37.380Z,1034.97
2023-02-13T03:24:38.270Z,1034.99
2023-02-13T03:25:39.149Z,1034.98
2023-02-13T03:26:40.030Z,1035.02
2023-02-13T03:27:40.924Z,1035.01
2023-02-13T03:28:41.796Z,1035.01
2023-02-13T03:29:43.164Z,1035.00
2023-02-13T03:30:43.538Z,1035.01
2023-02-13T03:31:44.501Z,1035.01
2023-02-13T03:32:44.904Z,1035.01
2023-02-13T03:33:45.794Z,1035.04
2023-02-13T03:34:46.678Z,1035.05
2023-02-13T03:35:47.560Z,1035.06
2023-02-13T03:36:48.448Z,1035.05
2023-02-13T03:37:49.376Z,1035.07
2023-02-13T03:38:50.223Z,1035.07
2023-02-13T03:39:51.099Z,1035.06
2023-02-13T03:40:51.982Z,1035.07
2023-02-13T03:41:52.864Z,1035.08
2023-02-13T03:42:53.737Z,1035.09
2023-02-13T03:43:54.630Z,1035.09
2023-02-13T03:44:55.508Z,1035.10
2023-02-13T03:45:56.412Z,1035.09
2023-02-13T03:46:57.270Z,1035.07
2023-02-13T03:47:58.154Z,1035.04
2023-02-13T03:48:59.060Z,1035.07
2023-02-13T03:49:59.956Z,1035.04
2023-02-13T03:51:00.857Z,1035.04
2023-02-13T03:52:01.760Z,1035.06
2023-02-13T03:53:02.688Z,1035.05
2023-02-13T03:54:03.584Z,1035.04
2023-02-13T03:55:04.479Z,1035.06
2023-02-13T03:56:05.377Z,1035.05
2023-02-13T03:57:06.246Z,1035.04
2023-02-13T03:58:07.143Z,1035.03
2023-02-13T03:59:08.034Z,1035.04
2023-02-13T04:00:08.923Z,1035.05
2023-02-13T04:01:09.909Z,1035.05
2023-02-13T04:02:10.795Z,1035.07
2023-02-13T04:03:11.646Z,1035.12
2023-02-13T04:04:12.558Z,1035.14
2023-02-13T04:05:14.711Z,1035.13
2023-02-13T04:06:14.109Z,1035.15
2023-02-13T04:07:14.980Z,1035.14
2023-02-13T04:08:15.884Z,1035.16
2023-02-13T04:09:16.744Z,1035.17
2023-02-13T04:10:17.630Z,1035.17
2023-02-13T04:11:18.502Z,1035.19
2023-02-13T04:12:19.383Z,1035.18
2023-02-13T04:13:20.269Z,1035.18
2023-02-13T04:14:21.159Z,1035.19
2023-02-13T04:15:22.043Z,1035.21
2023-02-13T04:16:22.980Z,1035.18
2023-02-13T04:17:23.820Z,1035.19
2023-02-13T04:18:24.710Z,1035.17
2023-02-13T04:19:25.596Z,1035.19
2023-02-13T04:20:26.485Z,1035.20
2023-02-13T04:21:27.350Z,1035.19
2023-02-13T04:22:28.236Z,1035.19
2023-02-13T04:23:29.133Z,1035.22
2023-02-13T04:24:30.002Z,1035.21
2023-02-13T04:25:30.884Z,1035.19
2023-02-13T04:26:31.767Z,1035.22
2023-02-13T04:27:32.711Z,1035.25
2023-02-13T04:28:33.623Z,1035.28
2023-02-13T04:29:34.491Z,1035.26
2023-02-13T04:30:35.407Z,1035.24
2023-02-13T04:31:36.425Z,1035.25
2023-02-13T04:32:36.835Z,1035.26
2023-02-13T04:33:37.715Z,1035.24
2023-02-13T04:34:38.604Z,1035.24
2023-02-13T04:35:39.489Z,1035.24
2023-02-13T04:36:40.372Z,1035.24
2023-02-13T04:37:41.260Z,1035.26
2023-02-13T04:38:42.162Z,1035.27
2023-02-13T04:39:43.032Z,1035.29
2023-02-13T04:40:43.915Z,1035.30
2023-02-13T04:41:44.801Z,1035.31
2023-02-13T04:42:45.681Z,1035.32
2023-02-13T04:43:46.562Z,1035.33
2023-02-13T04:44:47.450Z,1035.36
2023-02-13T04:45:48.352Z,1035.35
2023-02-13T04:46:49.210Z,1035.34
2023-02-13T04:47:50.113Z,1035.35
2023-02-13T04:48:50.978Z,1035.37
2023-02-13T04:49:51.871Z,1035.37
2023-02-13T04:50:52.755Z,1035.38
2023-02-13T04:51:53.638Z,1035.37
2023-02-13T04:52:54.521Z,1035.36
2023-02-13T04:53:55.432Z,1035.36
2023-02-13T04:54:56.296Z,1035.37
2023-02-13T04:55:57.186Z,1035.39
2023-02-13T04:56:58.063Z,1035.38
2023-02-13T04:57:58.943Z,1035.36
2023-02-13T04:58:59.820Z,1035.36
2023-02-13T05:00:00.716Z,1035.37
2023-02-13T05:01:01.659Z,1035.38
2023-02-13T05:02:02.541Z,1035.41
2023-02-13T05:03:03.412Z,1035.39
2023-02-13T05:04:04.343Z,1035.41
2023-02-13T05:05:05.201Z,1035.40
2023-02-13T05:06:06.065Z,1035.40
2023-02-13T05:07:06.944Z,1035.41
2023-02-13T05:08:07.825Z,1035.42
2023-02-13T05:09:08.726Z,1035.44
2023-02-13T05:10:09.604Z,1035.43
2023-02-13T05:11:10.467Z,1035.45
2023-02-13T05:12:11.339Z,1035.46
2023-02-13T05:13:11.903Z,1035.44
2023-02-13T05:14:12.779Z,1035.47
2023-02-13T05:15:13.678Z,1035.44
2023-02-13T05:16:14.428Z,1035.41
2023-02-13T05:17:14.793Z,1035.42
2023-02-13T05:18:15.674Z,1035.42
2023-02-13T05:19:16.550Z,1035.45
2023-02-13T05:20:17.453Z,1035.41
2023-02-13T05:21:18.323Z,1035.44
2023-02-13T05:22:19.229Z,1035.42
2023-02-13T05:23:20.091Z,1035.46
2023-02-13T05:24:20.998Z,1035.46
2023-02-13T05:25:21.864Z,1035.47
2023-02-13T05:26:22.743Z,1035.48
2023-02-13T05:27:23.624Z,1035.46
2023-02-13T05:28:24.540Z,1035.46
2023-02-13T05:29:25.394Z,1035.46
2023-02-13T05:30:26.289Z,1035.49
2023-02-13T05:31:27.274Z,1035.47
2023-02-13T05:32:28.155Z,1035.46
2023-02-13T05:33:29.036Z,1035.48
2023-02-13T05:34:29.918Z,1035.50
2023-02-13T05:35:31.053Z,1035.50
2023-02-13T05:36:31.426Z,1035.51
2023-02-13T05:37:32.339Z,1035.50
2023-02-13T05:38:33.175Z,1035.52
2023-02-13T05:39:34.104Z,1035.52
2023-02-13T05:40:34.999Z,1035.52
2023-02-13T05:41:35.876Z,1035.53
2023-02-13T05:42:36.755Z,1035.54
2023-02-13T05:43:37.629Z,1035.51
2023-02-13T05:44:38.514Z,1035.52
2023-02-13T05:45:39.480Z,1035.49
2023-02-13T05:46:40.411Z,1035.45
2023-02-13T05:47:41.254Z,1035.48
2023-02-13T05:48:42.135Z,1035.45
2023-02-13T05:49:43.020Z,1035.47
2023-02-13T05:50:43.932Z,1035.43
2023-02-13T05:51:44.820Z,1035.45
2023-02-13T05:52:45.701Z,1035.41
2023-02-13T05:53:46.582Z,1035.42
2023-02-13T05:54:47.488Z,1035.44
2023-02-13T05:55:48.346Z,1035.42
2023-02-13T05:56:49.237Z,1035.39
2023-02-13T05:57:50.130Z,1035.41
2023-02-13T05:58:50.950Z,1035.41
2023-02-13T05:59:51.833Z,1035.41
2023-02-13T06:00:52.728Z,1035.42
2023-02-13T06:01:53.603Z,1035.43
2023-02-13T06:02:54.566Z,1035.42
2023-02-13T06:03:57.761Z,1035.44
2023-02-13T06:04:56.079Z,1035.43
2023-02-13T06:05:56.981Z,1035.44
2023-02-13T06:06:57.811Z,1035.46
2023-02-13T06:07:58.641Z,1035.44
2023-02-13T06:08:59.483Z,1035.46
2023-02-13T06:10:00.322Z,1035.48
2023-02-13T06:11:01.568Z,1035.50
2023-02-13T06:12:01.996Z,1035.48
2023-02-13T06:13:02.835Z,1035.52
2023-02-13T06:14:03.653Z,1035.53
2023-02-13T06:15:04.485Z,1035.53
2023-02-13T06:16:05.396Z,1035.57
2023-02-13T06:17:06.175Z,1035.55
2023-02-13T06:18:07.020Z,1035.60
2023-02-13T06:19:07.821Z,1035.59
2023-02-13T06:20:08.656Z,1035.59
2023-02-13T06:21:09.490Z,1035.63
2023-02-13T06:22:10.369Z,1035.63
2023-02-13T06:23:11.152Z,1035.63
2023-02-13T06:24:11.959Z,1035.63
2023-02-13T06:25:12.811Z,1035.63
2023-02-13T06:26:13.625Z,1035.66
2023-02-13T06:27:14.454Z,1035.64
2023-02-13T06:28:15.309Z,1035.63
2023-02-13T06:29:16.124Z,1035.65
2023-02-13T06:30:16.953Z,1035.66
2023-02-13T06:31:17.943Z,1035.63
2023-02-13T06:32:18.769Z,1035.64
2023-02-13T06:33:19.601Z,1035.64
2023-02-13T06:34:20.432Z,1035.66
2023-02-13T06:35:21.257Z,1035.66
2023-02-13T06:36:22.107Z,1035.69
2023-02-13T06:37:22.925Z,1035.69
2023-02-13T06:38:23.747Z,1035.67
2023-02-13T06:39:24.574Z,1035.71
2023-02-13T06:40:25.432Z,1035.71
2023-02-13T06:41:26.268Z,1035.72
2023-02-13T06:42:27.081Z,1035.72
2023-02-13T06:43:27.911Z,1035.72
2023-02-13T06:44:28.732Z,1035.72
2023-02-13T06:45:29.569Z,1035.74
2023-02-13T06:46:30.457Z,1035.75
2023-02-13T06:47:31.260Z,1035.75
2023-02-13T06:48:32.092Z,1035.73
2023-02-13T06:49:32.925Z,1035.76
2023-02-13T06:50:33.746Z,1035.78
2023-02-13T06:51:34.600Z,1035.77
2023-02-13T06:52:35.420Z,1035.80
2023-02-13T06:53:36.255Z,1035.79
2023-02-13T06:54:46.785Z,1035.79
2023-02-13T06:55:38.873Z,1035.82
2023-02-13T06:56:38.678Z,1035.84
2023-02-13T06:57:39.481Z,1035.85
2023-02-13T06:58:40.307Z,1035.86
2023-02-13T06:59:41.140Z,1035.83
2023-02-13T07:00:42.002Z,1035.88
2023-02-13T07:01:42.816Z,1035.88
2023-02-13T07:02:43.672Z,1035.89
2023-02-13T07:03:44.465Z,1035.87
2023-02-13T07:04:45.286Z,1035.87
2023-02-13T07:05:46.115Z,1035.90
2023-02-13T07:06:46.976Z,1035.93
2023-02-13T07:07:47.868Z,1035.94
2023-02-13T07:08:48.702Z,1035.95
2023-02-13T07:09:49.532Z,1035.97
2023-02-13T07:10:50.385Z,1035.95
2023-02-13T07:11:52.298Z,1035.95
2023-02-13T07:13:04.956Z,1035.92
2023-02-13T07:13:53.850Z,1035.93
2023-02-13T07:14:53.671Z,1035.95
2023-02-13T07:15:54.522Z,1035.94
2023-02-13T07:16:55.329Z,1035.95
2023-02-13T07:17:56.161Z,1035.94
2023-02-13T07:18:56.977Z,1035.94
2023-02-13T07:19:57.808Z,1035.98
2023-02-13T07:20:58.966Z,1035.98
2023-02-13T07:21:59.317Z,1035.99
2023-02-13T07:23:00.150Z,1036.01
2023-02-13T07:24:00.976Z,1035.97
2023-02-13T07:25:01.795Z,1035.98
2023-02-13T07:26:02.649Z,1035.98
2023-02-13T07:27:03.462Z,1036.00
2023-02-13T07:28:04.327Z,1036.02
2023-02-13T07:29:11.099Z,1036.04
2023-02-13T07:30:06.835Z,1036.06
2023-02-13T07:31:06.962Z,1036.07
2023-02-13T07:32:07.390Z,1036.07
2023-02-13T07:33:08.186Z,1036.09
2023-02-13T07:34:09.003Z,1036.09
2023-02-13T07:35:09.823Z,1036.08
2023-02-13T07:36:10.660Z,1036.08
2023-02-13T07:37:11.494Z,1036.08
2023-02-13T07:38:12.323Z,1036.09
2023-02-13T07:39:13.142Z,1036.12
2023-02-13T07:40:13.974Z,1036.14
2023-02-13T07:41:14.826Z,1036.15
2023-02-13T07:42:15.643Z,1036.13
2023-02-13T07:43:16.475Z,1036.13
2023-02-13T07:44:17.301Z,1036.15
2023-02-13T07:45:18.130Z,1036.13
2023-02-13T07:46:18.992Z,1036.10
2023-02-13T07:47:20.349Z,1036.15
2023-02-13T07:48:20.712Z,1036.17
2023-02-13T07:49:21.548Z,1036.15
2023-02-13T07:50:22.371Z,1036.11
2023-02-13T07:51:23.203Z,1036.13
2023-02-13T07:52:24.047Z,1036.13
2023-02-13T07:53:24.869Z,1036.10
2023-02-13T07:54:25.696Z,1036.10
2023-02-13T07:55:26.521Z,1036.11
2023-02-13T07:56:27.373Z,1036.11
2023-02-13T07:57:28.191Z,1036.09
2023-02-13T07:58:29.021Z,1036.10
2023-02-13T07:59:29.838Z,1036.10
2023-02-13T08:00:30.670Z,1036.14
2023-02-13T08:01:31.523Z,1036.13
2023-02-13T08:02:32.328Z,1036.10
2023-02-13T08:03:33.215Z,1036.13
2023-02-13T08:04:33.991Z,1036.11
2023-02-13T08:05:34.850Z,1036.14
2023-02-13T08:06:35.684Z,1036.15
2023-02-13T08:07:36.480Z,1036.17
2023-02-13T08:08:37.303Z,1036.19
2023-02-13T08:09:39.623Z,1036.22
2023-02-13T08:10:38.981Z,1036.22
2023-02-13T08:11:39.848Z,1036.23
2023-02-13T08:12:40.643Z,1036.24
2023-02-13T08:13:41.462Z,1036.22
2023-02-13T08:14:42.293Z,1036.27
2023-02-13T08:15:43.128Z,1036.29
2023-02-13T08:16:44.011Z,1036.30
2023-02-13T08:17:44.796Z,1036.33
2023-02-13T08:18:45.616Z,1036.31
2023-02-13T08:19:46.444Z,1036.31
2023-02-13T08:20:47.265Z,1036.32
2023-02-13T08:21:48.093Z,1036.34
2023-02-13T08:22:48.923Z,1036.35
2023-02-13T08:23:49.752Z,1036.34
2023-02-13T08:24:50.585Z,1036.36
2023-02-13T08:25:51.425Z,1036.39
2023-02-13T08:26:52.264Z,1036.40
2023-02-13T08:27:53.083Z,1036.38
2023-02-13T08:28:53.900Z,1036.41
2023-02-13T08:29:54.719Z,1036.39
2023-02-13T08:30:55.652Z,1036.35
2023-02-13T08:31:56.489Z,1036.34
2023-02-13T08:32:57.355Z,1036.34
2023-02-13T08:33:58.161Z,1036.28
2023-02-13T08:34:58.995Z,1036.27
2023-02-13T08:36:00.065Z,1036.25
2023-02-13T08:37:00.429Z,1036.24
2023-02-13T08:38:01.263Z,1036.24
2023-02-13T08:39:02.088Z,1036.18
2023-02-13T08:40:02.914Z,1036.21
2023-02-13T08:41:03.750Z,1036.18
2023-02-13T08:42:04.622Z,1036.19
2023-02-13T08:43:05.427Z,1036.18
2023-02-13T08:44:06.237Z,1036.21
2023-02-13T08:45:07.068Z,1036.20
2023-02-13T08:46:07.978Z,1036.14
2023-02-13T08:47:08.788Z,1036.16
2023-02-13T08:48:09.614Z,1036.14
2023-02-13T08:49:10.443Z,1036.17
2023-02-13T08:50:11.273Z,1036.09
2023-02-13T08:51:12.099Z,1036.14
2023-02-13T08:52:12.922Z,1036.08
2023-02-13T08:53:13.760Z,1036.09
2023-02-13T08:54:14.583Z,1036.11
2023-02-13T08:55:15.410Z,1036.11
2023-02-13T08:56:16.235Z,1036.14
2023-02-13T08:57:17.090Z,1036.17
2023-02-13T08:58:17.907Z,1036.12
2023-02-13T08:59:18.736Z,1036.12
2023-02-13T09:00:19.560Z,1036.14
2023-02-13T09:01:20.467Z,1036.13
2023-02-13T09:02:21.332Z,1036.17
2023-02-13T09:03:22.130Z,1036.16
2023-02-13T09:04:22.957Z,1036.16
2023-02-13T09:05:23.785Z,1036.14
2023-02-13T09:06:24.613Z,1036.18
2023-02-13T09:07:25.446Z,1036.19
2023-02-13T09:08:26.279Z,1036.19
2023-02-13T09:09:27.110Z,1036.21
2023-02-13T09:10:27.961Z,1036.23
2023-02-13T09:11:28.787Z,1036.20
2023-02-13T09:12:29.630Z,1036.17
2023-02-13T09:13:30.448Z,1036.19
2023-02-13T09:14:31.271Z,1036.17
2023-02-13T09:15:32.097Z,1036.20
2023-02-13T09:16:32.997Z,1036.20
2023-02-13T09:17:33.786Z,1036.19
2023-02-13T09:18:34.625Z,1036.20
2023-02-13T09:19:35.462Z,1036.21
2023-02-13T09:20:36.440Z,1036.20
2023-02-13T09:21:37.220Z,1036.20
2023-02-13T09:22:38.048Z,1036.19
2023-02-13T09:23:38.882Z,1036.19
2023-02-13T09:24:39.703Z,1036.19
2023-02-13T09:25:40.534Z,1036.18
2023-02-13T09:26:41.372Z,1036.18
2023-02-13T09:27:42.237Z,1036.20
2023-02-13T09:28:43.223Z,1036.19
2023-02-13T09:29:43.948Z,1036.19
2023-02-13T09:30:44.818Z,1036.18
2023-02-13T09:31:45.808Z,1036.18
2023-02-13T09:32:46.145Z,1036.18
2023-02-13T09:33:46.979Z,1036.19
2023-02-13T09:34:47.806Z,1036.16
2023-02-13T09:35:48.637Z,1036.17
2023-02-13T09:36:49.468Z,1036.18
2023-02-13T09:37:50.313Z,1036.17
2023-02-13T09:38:51.139Z,1036.18
2023-02-13T09:39:51.965Z,1036.17
2023-02-13T09:40:52.797Z,1036.13
2023-02-13T09:41:53.622Z,1036.12
2023-02-13T09:42:54.470Z,1036.11
2023-02-13T09:43:55.276Z,1036.11
2023-02-13T09:44:56.109Z,1036.08
2023-02-13T09:45:57.392Z,1036.08
2023-02-13T09:46:57.877Z,1036.06
2023-02-13T09:47:58.701Z,1036.06
2023-02-13T09:48:59.546Z,1036.06
2023-02-13T09:50:00.375Z,1036.09
2023-02-13T09:51:01.199Z,1036.07
2023-02-13T09:52:02.032Z,1036.06
2023-02-13T09:53:02.866Z,1036.02
2023-02-13T09:54:03.706Z,1036.01
2023-02-13T09:55:04.537Z,1035.98
2023-02-13T09:56:05.371Z,1035.95
2023-02-13T09:57:06.195Z,1035.96
2023-02-13T09:58:07.046Z,1035.93
2023-02-13T09:59:07.856Z,1035.93
2023-02-13T10:00:08.691Z,1035.94
2023-02-13T10:01:09.630Z,1035.94
2023-02-13T10:02:10.419Z,1035.93
2023-02-13T10:03:11.248Z,1035.92
2023-02-13T10:04:12.093Z,1035.93
2023-02-13T10:05:12.942Z,1035.95
2023-02-13T10:06:13.738Z,1035.96
2023-02-13T10:07:14.561Z,1035.96
2023-02-13T10:08:15.384Z,1035.96
2023-02-13T10:09:16.237Z,1035.97
2023-02-13T10:10:17.065Z,1035.99
2023-02-13T10:11:17.893Z,1036.02
2023-02-13T10:12:18.732Z,1036.02
2023-02-13T10:13:19.566Z,1036.04
2023-02-13T10:14:20.393Z,1036.06
2023-02-13T10:15:21.222Z,1036.04
2023-02-13T10:16:22.114Z,1036.02
2023-02-13T10:17:22.923Z,1036.00
2023-02-13T10:18:23.754Z,1036.00
2023-02-13T10:19:24.593Z,1035.96
2023-02-13T10:20:25.419Z,1035.98
2023-02-13T10:21:26.250Z,1035.99
2023-02-13T10:22:27.069Z,1035.99
2023-02-13T10:23:27.898Z,1035.97
2023-02-13T10:24:28.746Z,1035.98
2023-02-13T10:25:29.576Z,1035.95
2023-02-13T10:26:30.388Z,1035.98
2023-02-13T10:27:31.229Z,1035.95
2023-02-13T10:28:32.153Z,1035.94
2023-02-13T10:29:32.981Z,1035.93
2023-02-13T10:30:33.808Z,1035.91
2023-02-13T10:31:35.648Z,1035.89
2023-02-13T10:32:35.516Z,1035.88
2023-02-13T10:33:36.338Z,1035.86
2023-02-13T10:34:37.195Z,1035.81
2023-02-13T10:35:38.024Z,1035.81
2023-02-13T10:36:38.856Z,1035.80
2023-02-13T10:37:39.683Z,1035.77
2023-02-13T10:38:40.514Z,1035.77
2023-02-13T10:39:41.364Z,1035.75
2023-02-13T10:40:42.188Z,1035.74
2023-02-13T10:41:43.056Z,1035.72
2023-02-13T10:42:43.873Z,1035.71
2023-02-13T10:43:44.715Z,1035.70
2023-02-13T10:44:45.523Z,1035.69
2023-02-13T10:45:46.352Z,1035.67
2023-02-13T10:46:47.292Z,1035.67
2023-02-13T10:47:47.815Z,1035.66
2023-02-13T10:48:48.637Z,1035.65
2023-02-13T10:49:49.473Z,1035.67
2023-02-13T10:50:50.307Z,1035.64
2023-02-13T10:51:51.137Z,1035.64
2023-02-13T10:52:51.969Z,1035.64
2023-02-13T10:53:52.796Z,1035.63
2023-02-13T10:54:53.628Z,1035.62
2023-02-13T10:55:54.459Z,1035.60
2023-02-13T10:56:55.285Z,1035.61
2023-02-13T10:57:56.111Z,1035.57
2023-02-13T10:58:56.965Z,1035.57
2023-02-13T10:59:57.785Z,1035.50
2023-02-13T11:00:58.611Z,1035.48
2023-02-13T11:01:59.495Z,1035.48
2023-02-13T11:03:00.294Z,1035.45
2023-02-13T11:04:01.141Z,1035.43
2023-02-13T11:05:01.961Z,1035.42
2023-02-13T11:06:02.789Z,1035.39
2023-02-13T11:07:03.627Z,1035.40
2023-02-13T11:08:04.449Z,1035.39
2023-02-13T11:09:05.290Z,1035.38
2023-02-13T11:10:06.107Z,1035.37
2023-02-13T11:11:06.978Z,1035.37
2023-02-13T11:12:07.763Z,1035.36
2023-02-13T11:13:08.589Z,1035.35
2023-02-13T11:14:09.456Z,1035.34
2023-02-13T11:15:10.264Z,1035.35
2023-02-13T11:16:11.158Z,1035.34
2023-02-13T11:17:11.966Z,1035.32
2023-02-13T11:18:12.796Z,1035.31
2023-02-13T11:19:13.615Z,1035.28
2023-02-13T11:20:14.478Z,1035.29
2023-02-13T11:21:15.303Z,1035.30
2023-02-13T11:22:16.142Z,1035.31
2023-02-13T11:23:16.966Z,1035.30
2023-02-13T11:24:17.796Z,1035.29
2023-02-13T11:25:18.633Z,1035.31
2023-02-13T11:26:19.462Z,1035.29
2023-02-13T11:27:22.111Z,1035.29
2023-02-13T11:28:21.174Z,1035.30
2023-02-13T11:29:22.021Z,1035.29
2023-02-13T11:30:22.856Z,1035.30
2023-02-13T11:31:23.862Z,1035.30
2023-02-13T11:32:24.451Z,1035.27
2023-02-13T11:33:25.223Z,1035.28
2023-02-13T11:34:26.059Z,1035.28
2023-02-13T11:35:26.903Z,1035.27
2023-02-13T11:36:27.736Z,1035.25
2023-02-13T11:37:28.579Z,1035.25
2023-02-13T11:38:29.420Z,1035.25
2023-02-13T11:39:30.279Z,1035.25
2023-02-13T11:40:31.085Z,1035.24
2023-02-13T11:41:31.913Z,1035.25
2023-02-13T11:42:32.735Z,1035.25
2023-02-13T11:43:33.567Z,1035.23
2023-02-13T11:44:34.446Z,1035.24
2023-02-13T11:45:35.237Z,1035.23
2023-02-13T11:46:36.171Z,1035.23
2023-02-13T11:47:36.994Z,1035.23
2023-02-13T11:48:37.824Z,1035.19
2023-02-13T11:49:38.662Z,1035.15
2023-02-13T11:50:39.495Z,1035.14
2023-02-13T11:51:40.323Z,1035.13
2023-02-13T11:52:41.153Z,1035.12
2023-02-13T11:53:41.993Z,1035.14
2023-02-13T11:54:42.807Z,1035.11
2023-02-13T11:55:43.652Z,1035.13
2023-02-13T11:57:03.054Z,1035.11
2023-02-13T11:57:46.190Z,1035.11
2023-02-13T11:58:46.080Z,1035.10
2023-02-13T11:59:46.909Z,1035.08
2023-02-13T12:00:47.755Z,1035.07
2023-02-13T12:01:48.585Z,1035.06
2023-02-13T12:02:49.500Z,1035.06
2023-02-13T12:03:50.440Z,1035.07
2023-02-13T12:04:51.239Z,1035.03
2023-02-13T12:05:52.092Z,1034.99
2023-02-13T12:06:52.906Z,1034.97
2023-02-13T12:07:53.724Z,1034.98
2023-02-13T12:08:54.580Z,1034.97
2023-02-13T12:09:55.385Z,1034.98
2023-02-13T12:10:56.223Z,1034.99
2023-02-13T12:11:57.068Z,1034.98
2023-02-13T12:12:57.896Z,1034.97
2023-02-13T12:13:58.734Z,1034.95
2023-02-13T12:14:59.584Z,1034.96
2023-02-13T12:16:01.019Z,1034.97